createdAt,value
2022-10-02T00:02:02.874Z,17.60
2022-10-02T00:04:51.890Z,10.00
2022-10-02T00:07:19.531Z,13.98
2022-10-02T00:09:51.061Z,16.95
2022-10-02T00:12:19.575Z,22.13
2022-10-02T00:14:47.522Z,14.90
2022-10-02T00:17:17.489Z,16.85
2022-10-02T00:19:43.864Z,12.43
2022-10-02T00:22:23.354Z,12.65
2022-10-02T00:25:08.416Z,14.27
2022-10-02T00:27:53.800Z,12.70
2022-10-02T00:30:20.176Z,19.70
2022-10-02T00:32:59.002Z,13.98
2022-10-02T00:35:37.836Z,15.05
2022-10-02T00:38:39.782Z,10.48
2022-10-02T00:41:24.798Z,9.80
2022-10-02T00:44:09.504Z,14.60
2022-10-02T00:46:47.213Z,17.73
2022-10-02T00:49:27.866Z,14.15
2022-10-02T00:52:05.282Z,16.65
2022-10-02T00:54:50.435Z,17.20
2022-10-02T00:57:19.768Z,21.75
2022-10-02T00:59:52.920Z,20.45
2022-10-02T01:02:31.489Z,17.93
2022-10-02T01:04:58.760Z,24.85
2022-10-02T01:07:25.061Z,18.75
2022-10-02T01:09:51.427Z,22.88
2022-10-02T01:12:17.751Z,21.70
2022-10-02T01:14:43.997Z,19.40
2022-10-02T01:17:39.612Z,19.75
2022-10-02T01:20:07.056Z,18.77
2022-10-02T01:22:42.909Z,18.15
2022-10-02T01:25:09.376Z,19.75
2022-10-02T01:27:39.181Z,21.23
2022-10-02T01:30:10.096Z,25.67
2022-10-02T01:32:40.368Z,17.77
2022-10-02T01:35:07.012Z,24.75
2022-10-02T01:37:35.274Z,24.50
2022-10-02T01:40:10.035Z,20.80
2022-10-02T01:42:40.073Z,23.55
2022-10-02T01:45:07.779Z,17.98
2022-10-02T01:47:42.840Z,17.30
2022-10-02T01:50:17.330Z,16.73
2022-10-02T01:52:49.965Z,18.75
2022-10-02T01:55:30.913Z,24.80
2022-10-02T01:58:03.417Z,19.10
2022-10-02T02:00:34.880Z,24.42
2022-10-02T02:03:15.773Z,25.15
2022-10-02T02:06:09.409Z,25.13
2022-10-02T02:09:02.294Z,20.75
2022-10-02T02:11:28.972Z,22.90
2022-10-02T02:14:00.163Z,15.82
2022-10-02T02:16:38.944Z,17.58
2022-10-02T02:19:08.824Z,21.88
2022-10-02T02:21:37.635Z,19.45
2022-10-02T02:24:06.448Z,18.58
2022-10-02T02:26:33.299Z,18.50
2022-10-02T02:29:01.789Z,18.55
2022-10-02T02:31:30.236Z,21.65
2022-10-02T02:34:01.683Z,20.90
2022-10-02T02:36:32.668Z,17.80
2022-10-02T02:39:01.167Z,21.90
2022-10-02T02:41:28.878Z,20.30
2022-10-02T02:44:01.168Z,20.13
2022-10-02T02:46:33.922Z,17.70
2022-10-02T02:49:05.003Z,20.77
2022-10-02T02:51:35.334Z,16.35
2022-10-02T02:54:07.560Z,19.17
2022-10-02T02:56:34.727Z,15.98
2022-10-02T02:59:05.547Z,26.02
2022-10-02T03:01:32.010Z,17.80
2022-10-02T03:03:58.312Z,21.50
2022-10-02T03:06:30.890Z,21.83
2022-10-02T03:08:57.531Z,21.77
2022-10-02T03:11:42.879Z,19.73
2022-10-02T03:14:20.588Z,19.60
2022-10-02T03:16:54.124Z,12.60
2022-10-02T03:19:35.782Z,11.90
2022-10-02T03:22:11.611Z,20.60
2022-10-02T03:24:45.710Z,19.52
2022-10-02T03:29:42.157Z,19.90
2022-10-02T03:32:08.944Z,17.92
2022-10-02T03:34:36.215Z,21.27
2022-10-02T03:37:02.728Z,24.88
2022-10-02T03:39:29.006Z,16.98
2022-10-02T03:41:55.348Z,20.00
2022-10-02T03:44:21.647Z,16.83
2022-10-02T03:46:47.958Z,14.48
2022-10-02T03:49:14.328Z,16.42
2022-10-02T03:51:40.611Z,17.92
2022-10-02T03:54:13.452Z,14.57
2022-10-02T03:56:42.440Z,19.10
2022-10-02T03:59:14.912Z,20.48
2022-10-02T04:01:48.837Z,14.23
2022-10-02T04:04:18.404Z,25.40
2022-10-02T04:07:04.972Z,17.38
2022-10-02T04:09:40.304Z,22.05
2022-10-02T04:12:25.561Z,15.65
2022-10-02T04:14:54.847Z,19.88
2022-10-02T04:17:29.787Z,20.08
2022-10-02T04:19:58.634Z,23.48
2022-10-02T04:22:24.912Z,20.35
2022-10-02T04:24:59.935Z,16.30
2022-10-02T04:27:40.220Z,19.13
2022-10-02T04:30:09.189Z,25.58
2022-10-02T04:32:36.701Z,19.55
2022-10-02T04:35:09.787Z,19.13
2022-10-02T04:37:59.672Z,19.37
2022-10-02T04:40:29.009Z,18.85
2022-10-02T04:43:08.562Z,16.88
2022-10-02T04:45:55.166Z,20.38
2022-10-02T04:48:44.312Z,21.33
2022-10-02T04:51:16.651Z,17.90
2022-10-02T04:53:55.342Z,17.35
2022-10-02T04:56:40.517Z,21.40
2022-10-02T04:59:16.697Z,18.45
2022-10-02T05:02:01.847Z,21.58
2022-10-02T05:04:54.528Z,19.95
2022-10-02T05:07:26.831Z,23.65
2022-10-02T05:10:01.672Z,17.10
2022-10-02T05:12:34.350Z,16.00
2022-10-02T05:15:23.254Z,16.25
2022-10-02T05:17:56.897Z,19.30
2022-10-02T05:20:23.194Z,19.25
2022-10-02T05:22:49.455Z,15.15
2022-10-02T05:25:32.608Z,17.95
2022-10-02T05:27:58.945Z,20.23
2022-10-02T05:30:26.881Z,21.83
2022-10-02T05:32:56.129Z,21.75
2022-10-02T05:35:22.386Z,16.30
2022-10-02T05:37:48.652Z,17.92
2022-10-02T05:40:23.140Z,22.67
2022-10-02T05:43:10.248Z,24.63
2022-10-02T05:45:38.313Z,23.35
2022-10-02T05:48:14.033Z,19.13
2022-10-02T05:50:40.720Z,17.77
2022-10-02T05:53:28.976Z,19.15
2022-10-02T05:55:58.812Z,17.90
2022-10-02T05:58:34.453Z,19.52
2022-10-02T06:01:06.364Z,17.45
2022-10-02T06:03:38.230Z,23.33
2022-10-02T06:06:10.189Z,19.92
2022-10-02T06:08:47.247Z,20.88
2022-10-02T06:11:20.137Z,25.25
2022-10-02T06:13:46.385Z,24.38
2022-10-02T06:16:18.564Z,17.83
2022-10-02T06:18:49.130Z,16.80
2022-10-02T06:21:18.446Z,18.63
2022-10-02T06:23:47.588Z,18.75
2022-10-02T06:26:16.611Z,18.77
2022-10-02T06:28:48.345Z,15.80
2022-10-02T06:31:47.288Z,12.05
2022-10-02T06:34:14.427Z,17.85
2022-10-02T06:36:48.952Z,17.85
2022-10-02T06:39:23.118Z,13.80
2022-10-02T06:44:16.879Z,13.68
2022-10-02T06:47:03.113Z,18.08
2022-10-02T06:49:46.849Z,15.30
2022-10-02T06:52:16.221Z,12.32
2022-10-02T06:54:55.969Z,18.08
2022-10-02T06:57:30.800Z,12.63
2022-10-02T07:00:16.353Z,13.93
2022-10-02T07:02:48.829Z,14.68
2022-10-02T07:05:30.336Z,12.60
2022-10-02T07:08:02.623Z,10.38
2022-10-02T07:10:32.815Z,11.93
2022-10-02T07:13:15.809Z,8.80
2022-10-02T07:15:42.033Z,14.02
2022-10-02T07:18:08.706Z,16.48
2022-10-02T07:20:54.309Z,10.63
2022-10-02T07:23:20.620Z,11.85
2022-10-02T07:26:05.881Z,13.98
2022-10-02T07:28:39.709Z,6.95
2022-10-02T07:31:12.633Z,9.95
2022-10-02T07:33:45.705Z,5.00
2022-10-02T07:36:13.356Z,7.40
2022-10-02T07:38:47.942Z,9.57
2022-10-02T07:41:14.185Z,6.90
2022-10-02T07:43:55.862Z,6.57
2022-10-02T07:46:22.126Z,9.10
2022-10-02T07:48:51.400Z,7.88
2022-10-02T07:51:39.895Z,8.07
2022-10-02T07:54:09.149Z,4.47
2022-10-02T07:56:36.167Z,7.80
2022-10-02T07:59:08.717Z,4.75
2022-10-02T08:01:36.994Z,4.75
2022-10-02T08:04:05.699Z,4.13
2022-10-02T08:06:32.654Z,7.50
2022-10-02T08:09:02.353Z,3.95
2022-10-02T08:11:34.440Z,3.63
2022-10-02T08:14:22.602Z,6.00
2022-10-02T08:16:50.515Z,4.72
2022-10-02T08:19:18.978Z,3.50
2022-10-02T08:21:55.588Z,4.45
2022-10-02T08:24:25.409Z,6.57
2022-10-02T08:27:00.930Z,2.35
2022-10-02T08:29:31.069Z,4.85
2022-10-02T08:31:57.464Z,2.65
2022-10-02T08:34:24.650Z,3.92
2022-10-02T08:37:03.384Z,3.25
2022-10-02T08:39:50.523Z,3.78
2022-10-02T08:42:27.860Z,3.70
2022-10-02T08:44:54.108Z,2.97
2022-10-02T08:47:47.877Z,4.22
2022-10-02T08:50:22.082Z,2.20
2022-10-02T08:53:08.312Z,3.45
2022-10-02T08:55:42.121Z,3.00
2022-10-02T08:58:27.280Z,3.95
2022-10-02T09:01:09.286Z,3.30
2022-10-02T09:03:35.545Z,1.85
2022-10-02T09:06:01.793Z,2.67
2022-10-02T09:08:38.590Z,2.70
2022-10-02T09:11:32.452Z,3.38
2022-10-02T09:14:02.628Z,3.27
2022-10-02T09:16:32.831Z,3.30
2022-10-02T09:19:05.209Z,2.15
2022-10-02T09:21:40.478Z,2.65
2022-10-02T09:24:15.834Z,1.60
2022-10-02T09:26:48.227Z,2.67
2022-10-02T09:29:44.681Z,1.27
2022-10-02T09:32:10.911Z,4.32
2022-10-02T09:34:47.378Z,2.03
2022-10-02T09:37:32.473Z,1.45
2022-10-02T09:39:58.763Z,1.48
2022-10-02T09:42:43.329Z,3.08
2022-10-02T09:45:09.593Z,3.03
2022-10-02T09:47:41.863Z,2.78
2022-10-02T09:50:11.212Z,2.42
2022-10-02T09:52:42.030Z,1.83
2022-10-02T09:55:36.675Z,3.25
2022-10-02T09:58:21.214Z,1.57
2022-10-02T10:01:06.371Z,2.70
2022-10-02T10:03:45.346Z,2.08
2022-10-02T10:06:24.048Z,2.10
2022-10-02T10:09:05.689Z,2.42
2022-10-02T10:11:50.970Z,1.70
2022-10-02T10:14:20.355Z,1.42
2022-10-02T10:16:59.074Z,3.78
2022-10-02T10:19:36.945Z,1.33
2022-10-02T10:22:09.528Z,2.88
2022-10-02T10:24:48.080Z,2.35
2022-10-02T10:27:30.141Z,1.58
2022-10-02T10:29:56.815Z,3.00
2022-10-02T10:32:42.025Z,1.70
2022-10-02T10:35:11.403Z,1.63
2022-10-02T10:38:15.366Z,1.90
2022-10-02T10:41:10.986Z,2.13
2022-10-02T10:43:52.598Z,1.83
2022-10-02T10:46:18.932Z,1.20
2022-10-02T10:48:51.261Z,1.92
2022-10-02T10:51:17.802Z,3.08
2022-10-02T10:54:04.808Z,2.05
2022-10-02T10:56:36.809Z,2.53
2022-10-02T10:59:25.249Z,1.45
2022-10-02T11:01:54.888Z,1.77
2022-10-02T11:04:39.864Z,2.22
2022-10-02T11:07:16.749Z,1.30
2022-10-02T11:09:55.601Z,1.77
2022-10-02T11:12:33.741Z,2.92
2022-10-02T11:15:29.389Z,1.48
2022-10-02T11:18:02.925Z,3.00
2022-10-02T11:20:30.122Z,1.65
2022-10-02T11:23:05.544Z,2.08
2022-10-02T11:25:45.597Z,1.35
2022-10-02T11:28:41.390Z,1.35
2022-10-02T11:31:17.278Z,1.25
2022-10-02T11:33:44.229Z,1.30
2022-10-02T11:36:13.540Z,1.30
2022-10-02T11:38:46.395Z,1.30
2022-10-02T11:41:28.486Z,0.98
2022-10-02T11:43:59.487Z,1.08
2022-10-02T11:46:44.537Z,1.20
2022-10-02T11:49:24.108Z,1.70
2022-10-02T11:51:50.794Z,1.50
2022-10-02T11:54:37.334Z,1.60
2022-10-02T11:57:22.680Z,1.58
2022-10-02T12:00:08.272Z,2.25
2022-10-02T12:02:43.643Z,1.45
2022-10-02T12:05:09.974Z,1.10
2022-10-02T12:07:39.683Z,2.70
2022-10-02T12:10:24.458Z,2.25
2022-10-02T12:13:03.576Z,2.35
2022-10-02T12:15:39.018Z,2.47
2022-10-02T12:18:24.036Z,1.10
2022-10-02T12:21:14.237Z,3.70
2022-10-02T12:24:05.380Z,5.50
2022-10-02T12:26:59.123Z,7.80
2022-10-02T12:29:44.172Z,4.05
2022-10-02T12:32:18.328Z,2.22
2022-10-02T12:37:41.991Z,1.27
2022-10-02T12:40:23.210Z,1.60
2022-10-02T12:42:59.990Z,1.75
2022-10-02T12:45:47.452Z,2.17
2022-10-02T12:48:45.730Z,2.47
2022-10-02T12:51:11.982Z,2.50
2022-10-02T12:54:06.471Z,2.05
2022-10-02T12:56:51.656Z,4.15
2022-10-02T12:59:20.957Z,2.75
2022-10-02T13:02:13.523Z,1.63
2022-10-02T13:05:09.927Z,2.33
2022-10-02T13:07:55.818Z,1.23
2022-10-02T13:10:23.835Z,1.65
2022-10-02T13:13:17.377Z,1.33
2022-10-02T13:15:47.473Z,2.63
2022-10-02T13:18:33.676Z,2.75
2022-10-02T13:21:18.857Z,2.17
2022-10-02T13:24:03.896Z,1.27
2022-10-02T13:26:30.257Z,1.70
2022-10-02T13:29:04.161Z,2.33
2022-10-02T13:31:48.859Z,2.42
2022-10-02T13:34:25.549Z,2.08
2022-10-02T13:37:10.123Z,2.63
2022-10-02T13:39:50.033Z,2.60
2022-10-02T13:42:33.009Z,4.53
2022-10-02T13:45:03.468Z,2.45
2022-10-02T13:47:36.451Z,1.35
2022-10-02T13:50:21.528Z,2.42
2022-10-02T13:52:53.963Z,2.47
2022-10-02T13:55:29.089Z,2.28
2022-10-02T13:58:02.389Z,1.40
2022-10-02T14:00:37.802Z,3.97
2022-10-02T14:03:13.326Z,2.70
2022-10-02T14:05:45.405Z,1.50
2022-10-02T14:08:14.743Z,3.17
2022-10-02T14:10:59.449Z,3.10
2022-10-02T14:13:32.171Z,2.10
2022-10-02T14:16:10.735Z,2.38
2022-10-02T14:18:44.021Z,3.45
2022-10-02T14:21:19.824Z,2.03
2022-10-02T14:23:58.277Z,2.75
2022-10-02T14:26:47.942Z,4.82
2022-10-02T14:29:18.027Z,2.63
2022-10-02T14:32:04.079Z,3.60
2022-10-02T14:34:49.631Z,1.80
2022-10-02T14:37:16.711Z,2.80
2022-10-02T14:39:45.545Z,4.55
2022-10-02T14:42:27.803Z,4.88
2022-10-02T14:45:12.894Z,3.85
2022-10-02T14:47:49.995Z,6.13
2022-10-02T14:50:16.245Z,7.15
2022-10-02T14:53:01.818Z,6.20
2022-10-02T14:55:45.297Z,6.18
2022-10-02T14:58:28.945Z,4.07
2022-10-02T15:01:09.127Z,5.63
2022-10-02T15:03:45.300Z,4.10
2022-10-02T15:06:31.408Z,9.52
2022-10-02T15:09:18.745Z,4.18
2022-10-02T15:12:06.552Z,5.03
2022-10-02T15:14:35.904Z,6.63
2022-10-02T15:17:27.686Z,5.25
2022-10-02T15:20:11.664Z,7.25
2022-10-02T15:22:55.530Z,5.13
2022-10-02T15:25:40.660Z,4.95
2022-10-02T15:28:35.019Z,6.68
2022-10-02T15:31:04.666Z,5.03
2022-10-02T15:33:37.346Z,7.90
2022-10-02T15:36:12.404Z,6.32
2022-10-02T15:38:52.103Z,4.70
2022-10-02T15:41:37.654Z,5.30
2022-10-02T15:44:08.798Z,5.75
2022-10-02T15:46:47.264Z,8.25
2022-10-02T15:49:23.195Z,5.68
2022-10-02T15:52:01.130Z,5.50
2022-10-02T15:54:36.139Z,5.72
2022-10-02T15:57:11.588Z,6.43
2022-10-02T15:59:40.968Z,6.57
2022-10-02T16:02:07.254Z,4.55
2022-10-02T16:04:52.031Z,5.70
2022-10-02T16:07:37.083Z,5.28
2022-10-02T16:10:22.225Z,7.70
2022-10-02T16:12:49.397Z,5.55
2022-10-02T16:15:34.581Z,5.40
2022-10-02T16:18:03.959Z,9.13
2022-10-02T16:20:38.244Z,7.05
2022-10-02T16:23:10.707Z,6.60
2022-10-02T16:25:37.006Z,6.95
2022-10-02T16:28:03.304Z,5.90
2022-10-02T16:30:33.561Z,3.85
2022-10-02T16:32:59.835Z,8.32
2022-10-02T16:35:44.560Z,8.00
2022-10-02T16:38:10.820Z,6.78
2022-10-02T16:40:41.018Z,7.93
2022-10-02T16:43:12.710Z,5.00
2022-10-02T16:45:48.432Z,6.10
2022-10-02T16:48:16.784Z,11.77
2022-10-02T16:51:05.254Z,8.90
2022-10-02T16:53:42.773Z,8.38
2022-10-02T16:56:19.059Z,9.98
2022-10-02T16:59:01.275Z,9.57
2022-10-02T17:01:28.038Z,8.82
2022-10-02T17:03:55.983Z,11.55
2022-10-02T17:06:28.406Z,5.93
2022-10-02T17:09:00.051Z,8.45
2022-10-02T17:11:27.869Z,9.68
2022-10-02T17:14:01.675Z,8.10
2022-10-02T17:16:33.128Z,8.38
2022-10-02T17:19:04.290Z,8.90
2022-10-02T17:21:49.648Z,6.78
2022-10-02T17:24:19.048Z,8.57
2022-10-02T17:27:03.883Z,8.95
2022-10-02T17:29:36.485Z,11.52
2022-10-02T17:32:07.601Z,11.77
2022-10-02T17:34:44.923Z,9.70
2022-10-02T17:37:11.217Z,10.52
2022-10-02T17:39:56.481Z,7.82
2022-10-02T17:42:27.549Z,11.35
2022-10-02T17:45:12.562Z,9.25
2022-10-02T17:48:05.668Z,14.02
2022-10-02T17:50:38.025Z,12.48
2022-10-02T17:53:32.158Z,17.48
2022-10-02T17:56:29.826Z,15.48
2022-10-02T17:59:02.097Z,10.45
2022-10-02T18:01:28.937Z,12.32
2022-10-02T18:04:07.253Z,12.38
2022-10-02T18:06:41.834Z,21.80
2022-10-02T18:09:26.997Z,23.05
2022-10-02T18:11:59.421Z,26.75
2022-10-02T18:14:35.768Z,15.25
2022-10-02T18:17:02.072Z,10.98
2022-10-02T18:19:48.205Z,11.35
2022-10-02T18:22:33.428Z,18.27
2022-10-02T18:24:59.666Z,19.52
2022-10-02T18:27:29.060Z,17.00
2022-10-02T18:30:10.518Z,14.02
2022-10-02T18:32:49.066Z,15.93
2022-10-02T18:35:15.359Z,26.30
2022-10-02T18:37:41.701Z,37.45
2022-10-02T18:40:23.818Z,34.55
2022-10-02T18:43:02.169Z,33.47
2022-10-02T18:45:39.322Z,21.63
2022-10-02T18:48:24.037Z,21.55
2022-10-02T18:51:03.115Z,19.08
2022-10-02T18:53:46.455Z,17.27
2022-10-02T18:56:15.003Z,19.85
2022-10-02T18:58:44.403Z,15.38
2022-10-02T19:01:15.773Z,16.08
2022-10-02T19:03:42.087Z,16.88
2022-10-02T19:06:15.066Z,21.63
2022-10-02T19:09:00.266Z,18.38
2022-10-02T19:11:28.250Z,25.60
2022-10-02T19:13:54.762Z,19.10
2022-10-02T19:16:25.725Z,22.65
2022-10-02T19:19:11.918Z,24.50
2022-10-02T19:21:38.578Z,25.88
2022-10-02T19:24:07.485Z,19.80
2022-10-02T19:26:35.359Z,21.90
2022-10-02T19:29:19.780Z,22.63
2022-10-02T19:31:46.443Z,17.15
2022-10-02T19:34:15.781Z,19.05
2022-10-02T19:36:50.269Z,15.48
2022-10-02T19:39:22.441Z,18.38
2022-10-02T19:41:49.061Z,20.20
2022-10-02T19:44:22.385Z,15.07
2022-10-02T19:46:50.320Z,17.75
2022-10-02T19:49:22.972Z,15.18
2022-10-02T19:51:50.749Z,20.55
2022-10-02T19:54:28.744Z,15.43
2022-10-02T19:57:15.295Z,18.38
2022-10-02T19:59:44.090Z,17.00
2022-10-02T20:02:16.794Z,14.82
2022-10-02T20:04:43.333Z,22.08
2022-10-02T20:07:13.164Z,15.05
2022-10-02T20:09:43.862Z,14.23
2022-10-02T20:12:14.897Z,14.98
2022-10-02T20:14:44.780Z,19.42
2022-10-02T20:17:12.572Z,16.27
2022-10-02T20:19:39.179Z,16.58
2022-10-02T20:22:15.571Z,19.10
2022-10-02T20:24:54.812Z,16.73
2022-10-02T20:27:24.385Z,22.88
2022-10-02T20:29:54.342Z,16.17
2022-10-02T20:32:23.627Z,21.63
2022-10-02T20:34:53.284Z,24.45
2022-10-02T20:37:24.259Z,17.08
2022-10-02T20:39:58.860Z,20.63
2022-10-02T20:42:47.418Z,19.23
2022-10-02T20:45:14.452Z,23.50
2022-10-02T20:47:40.718Z,27.75
2022-10-02T20:50:13.110Z,19.83
2022-10-02T20:52:58.379Z,20.50
2022-10-02T20:55:30.169Z,28.67
2022-10-02T20:58:15.340Z,17.58
2022-10-02T21:00:41.582Z,17.60
2022-10-02T21:03:22.812Z,26.90
2022-10-02T21:06:08.039Z,19.08
2022-10-02T21:08:46.958Z,24.05
2022-10-02T21:11:19.076Z,21.80
2022-10-02T21:13:58.186Z,27.33
2022-10-02T21:16:35.040Z,18.27
2022-10-02T21:19:12.214Z,18.70
2022-10-02T21:22:05.301Z,19.40
2022-10-02T21:24:34.699Z,17.15
2022-10-02T21:27:20.255Z,22.52
2022-10-02T21:29:59.422Z,22.17
2022-10-02T21:32:28.772Z,20.38
2022-10-02T21:35:07.744Z,17.73
2022-10-02T21:37:34.686Z,19.40
2022-10-02T21:40:29.401Z,15.90
2022-10-02T21:43:26.998Z,23.38
2022-10-02T21:46:02.372Z,22.15
2022-10-02T21:48:47.672Z,27.63
2022-10-02T21:51:13.964Z,21.27
2022-10-02T21:53:49.448Z,24.23
2022-10-02T21:56:32.450Z,17.30
2022-10-02T21:58:58.715Z,23.70
2022-10-02T22:02:07.087Z,19.40
2022-10-02T22:04:52.771Z,21.27
2022-10-02T22:07:27.953Z,23.67
2022-10-02T22:09:57.921Z,26.02
2022-10-02T22:12:32.657Z,21.08
2022-10-02T22:15:04.283Z,19.15
2022-10-02T22:17:33.877Z,22.02
2022-10-02T22:20:09.911Z,20.58
2022-10-02T22:22:36.148Z,26.30
2022-10-02T22:25:21.373Z,17.88
2022-10-02T22:28:15.029Z,23.60
2022-10-02T22:31:04.328Z,22.98
2022-10-02T22:33:31.692Z,23.00
2022-10-02T22:36:04.340Z,26.60
2022-10-02T22:38:34.145Z,30.85
2022-10-02T22:41:16.070Z,22.10
2022-10-02T22:43:48.277Z,22.90
2022-10-02T22:46:30.005Z,23.02
2022-10-02T22:48:56.310Z,21.40
2022-10-02T22:51:27.349Z,30.25
2022-10-02T22:54:05.649Z,24.17
2022-10-02T22:56:38.284Z,23.05
2022-10-02T22:59:13.772Z,25.50
2022-10-02T23:01:43.647Z,24.10
2022-10-02T23:04:19.374Z,24.63
2022-10-02T23:06:57.585Z,18.20
2022-10-02T23:09:26.193Z,23.67
2022-10-02T23:12:04.113Z,23.42
2022-10-02T23:14:44.229Z,23.55
2022-10-02T23:17:13.125Z,23.52
2022-10-02T23:19:48.542Z,27.65
2022-10-02T23:22:29.464Z,21.52
2022-10-02T23:25:25.218Z,28.67
2022-10-02T23:27:51.531Z,28.42
2022-10-02T23:30:19.270Z,25.65
2022-10-02T23:32:50.991Z,25.35
2022-10-02T23:35:44.062Z,28.73
2022-10-02T23:38:25.013Z,27.85
2022-10-02T23:41:10.104Z,28.67
2022-10-02T23:43:48.624Z,30.23
2022-10-02T23:46:19.582Z,28.80
2022-10-02T23:48:45.939Z,30.45
2022-10-02T23:51:12.197Z,27.40
2022-10-02T23:53:57.292Z,29.95
2022-10-02T23:56:42.020Z,26.48
2022-10-02T23:59:26.637Z,33.10
